Wien Memorial, AK

3:29 PM AKST on February 21, 2018 (GMT -0900)
Kotzebue | | Change Station
Active Advisory: Winter Weather Advisory

Elev 10 ft 66.88 °N, 162.60 °W | Updated 36 minutes ago

Overcast
Overcast
26 °F
Feels Like 10 °F
N
26
Wind Variable Wind from ESE

Today
High -- | Low -- °F
--% Chance of Precip.
Yesterday
High -- | Low -- °F
Precip. -- in
Pressure 29.92 in
Visibility 9.0 miles
Clouds Overcast 1700 ft
Windchill 10 °F
Dew Point 23 °F
Humidity 88%
Rainfall 0.00 in
Snow Depth Not available.
9:36 AM 6:33 PM
Waxing Crescent, 36% visible
METAR PAOT 212353Z 12023KT 9SM OVC017 M03/M05 A2992 RMK AO2 PK WND 11030/2256 SNE43 SLP130 P0000 60000 I6000 T10331050 11033 21056 56022
Pressure 29.92 in
Visibility 9.0 miles
Clouds Overcast 1700 ft
Windchill 10 °F
Dew Point 23 °F
Humidity 88%
Rainfall 0.00 in
Snow Depth Not available.
9:36 AM 6:33 PM
Waxing Crescent, 36% visible
METAR PAOT 212353Z 12023KT 9SM OVC017 M03/M05 A2992 RMK AO2 PK WND 11030/2256 SNE43 SLP130 P0000 60000 I6000 T10331050 11033 21056 56022

Get Your Daily Forecast Email!

Thanks for signing up!

Be on the lookout for a verification email in your inbox.

You'll start receiving severe weather alerts in your inbox..

×

10-Day Weather Forecast

Almanac

Astronomy

Feb. 21, 2018 Rise Set
Actual Time
Civil Twilight
Nautical Twilight
Astronomical Twilight
Moon
Length of Visible Light
Length of Day
Tomorrow will be .
, % of the Moon is Illuminated

Today's Extremes

State Highs State Lows

Community

WunderPhotos

Category 6

Welcome to Category 6. This is the collective home for Weather Underground's featured writeups by Dr. Jeff Masters (right), Bob Henson (left), Chris Burt, and other regular contributors.

Nearby

Air Quality

  Air Quality AQ Index Pollutant
Not available.

Snow Depth

Station Depth Elevation

Earthquake Activity

City Distance Mag. Time & Date
Minimum magnitude displayed is 2.5.

Coastal Water Temperatures

Place Temperature

Stations

Nearby Weather Stations

Station Location Temp. Windchill Dew Point Humidity Wind Precip. Elev Updated Type
                   

Watches & Warnings

Winter Weather Advisory
Issued: 2:21 PM AKST Feb. 21, 2018 – National Weather Service

... Winter Weather Advisory remains in effect from noon Thursday
to 6 am akst Friday...

* what... blowing snow with poor visibility and strong winds
expected. Winds gusting as high as 45 mph will cause areas of
blowing and drifting snow. Visibility reduced to one half mile
or less at times.

* Where... Baldwin Peninsula and Selawik valley.

* When... noon Thursday to 6 am Friday. Winds and blowing snow will
increase Thursday afternoon and continue through Friday
morning.

* Additional details... winds gusting as high as 45 mph will cause
areas of blowing and drifting snow.

Precautionary/preparedness actions...

A Winter Weather Advisory for blowing snow means periods of
blowing snow will cause travel difficulties.